createdAt,value
2019-03-17T00:01:15.943Z,25.17
2019-03-17T00:03:42.623Z,25.07
2019-03-17T00:06:09.254Z,25.50
2019-03-17T00:08:39.031Z,27.57
2019-03-17T00:11:05.679Z,30.07
2019-03-17T00:13:32.245Z,32.47
2019-03-17T00:15:58.870Z,30.50
2019-03-17T00:18:25.553Z,33.13
2019-03-17T00:20:52.259Z,31.37
2019-03-17T00:23:18.982Z,26.83
2019-03-17T00:25:45.673Z,28.40
2019-03-17T00:28:12.523Z,27.27
2019-03-17T00:30:39.430Z,29.60
2019-03-17T00:33:06.040Z,29.80
2019-03-17T00:35:32.695Z,30.07
2019-03-17T00:37:59.275Z,30.00
2019-03-17T00:40:25.878Z,28.27
2019-03-17T00:42:53.713Z,27.13
2019-03-17T00:45:20.871Z,29.37
2019-03-17T00:47:47.494Z,29.13
2019-03-17T00:50:14.328Z,29.53
2019-03-17T00:52:40.900Z,30.30
2019-03-17T00:55:07.887Z,28.83
2019-03-17T00:57:34.763Z,29.33
2019-03-17T01:00:02.478Z,27.57
2019-03-17T01:02:29.293Z,28.57
2019-03-17T01:04:56.650Z,30.07
2019-03-17T01:07:23.556Z,29.73
2019-03-17T01:09:50.295Z,28.47
2019-03-17T01:12:17.317Z,28.10
2019-03-17T01:14:43.892Z,27.73
2019-03-17T01:17:10.564Z,26.63
2019-03-17T01:19:37.506Z,27.33
2019-03-17T01:22:04.244Z,27.47
2019-03-17T01:24:30.839Z,25.37
2019-03-17T01:27:00.312Z,27.53
2019-03-17T01:29:29.093Z,29.93
2019-03-17T01:31:56.272Z,34.67
2019-03-17T01:34:23.583Z,31.50
2019-03-17T01:36:50.877Z,29.13
2019-03-17T01:39:19.381Z,25.57
2019-03-17T01:41:47.030Z,23.37
2019-03-17T01:44:13.782Z,22.10
2019-03-17T01:46:40.378Z,22.83
2019-03-17T01:49:06.926Z,23.00
2019-03-17T01:51:33.549Z,21.20
2019-03-17T01:54:00.146Z,21.00
2019-03-17T01:56:26.766Z,20.33
2019-03-17T01:58:53.583Z,19.67
2019-03-17T02:01:20.494Z,19.70
2019-03-17T02:03:47.243Z,21.07
2019-03-17T02:06:13.915Z,19.70
2019-03-17T02:08:40.613Z,19.60
2019-03-17T02:11:07.273Z,21.00
2019-03-17T02:13:33.824Z,21.63
2019-03-17T02:16:00.505Z,22.00
2019-03-17T02:18:27.070Z,20.67
2019-03-17T02:20:53.691Z,19.93
2019-03-17T02:23:21.712Z,18.63
2019-03-17T02:25:48.361Z,15.87
2019-03-17T02:28:15.009Z,16.67
2019-03-17T02:30:41.621Z,17.47
2019-03-17T02:33:08.236Z,16.13
2019-03-17T02:35:39.432Z,15.27
2019-03-17T02:38:03.317Z,14.90
2019-03-17T02:40:29.992Z,13.47
2019-03-17T02:42:56.670Z,12.77
2019-03-17T02:45:23.495Z,13.73
2019-03-17T02:47:50.060Z,13.57
2019-03-17T02:50:16.662Z,12.83
2019-03-17T02:52:43.276Z,11.30
2019-03-17T02:55:10.282Z,11.37
2019-03-17T02:57:39.924Z,11.70
2019-03-17T03:00:09.591Z,10.40
2019-03-17T03:02:36.398Z,12.20
2019-03-17T03:05:05.984Z,10.80
2019-03-17T03:07:32.887Z,12.07
2019-03-17T03:09:59.460Z,12.43
2019-03-17T03:12:26.199Z,11.47
2019-03-17T03:14:52.749Z,11.77
2019-03-17T03:17:19.360Z,11.20
2019-03-17T03:19:45.899Z,10.40
2019-03-17T03:22:12.459Z,10.40
2019-03-17T03:24:39.166Z,10.37
2019-03-17T03:27:05.898Z,10.23
2019-03-17T03:29:32.644Z,11.17
2019-03-17T03:31:59.235Z,9.80
2019-03-17T03:34:25.939Z,10.43
2019-03-17T03:36:52.688Z,10.00
2019-03-17T03:39:19.391Z,9.93
2019-03-17T03:41:45.927Z,11.60
2019-03-17T03:44:12.490Z,10.60
2019-03-17T03:46:40.351Z,10.20
2019-03-17T03:49:07.144Z,12.13
2019-03-17T03:51:33.854Z,11.17
2019-03-17T03:54:00.678Z,12.00
2019-03-17T03:56:27.349Z,11.03
2019-03-17T03:58:54.163Z,10.63
2019-03-17T04:01:20.842Z,10.77
2019-03-17T04:03:47.421Z,11.87
2019-03-17T04:06:25.517Z,10.00
2019-03-17T04:08:42.507Z,9.80
2019-03-17T04:11:09.140Z,10.33
2019-03-17T04:13:35.711Z,9.97
2019-03-17T04:16:02.403Z,10.80
2019-03-17T04:18:29.142Z,10.70
2019-03-17T04:20:55.798Z,10.77
2019-03-17T04:23:22.709Z,10.00
2019-03-17T04:25:49.438Z,10.87
2019-03-17T04:28:16.198Z,10.80
2019-03-17T04:30:42.781Z,10.67
2019-03-17T04:33:09.512Z,10.63
2019-03-17T04:35:36.242Z,10.63
2019-03-17T04:38:03.008Z,10.47
2019-03-17T04:40:29.893Z,10.30
2019-03-17T04:42:56.500Z,10.60
2019-03-17T04:45:23.263Z,9.83
2019-03-17T04:47:49.814Z,10.90
2019-03-17T04:50:16.421Z,10.77
2019-03-17T04:52:43.142Z,10.57
2019-03-17T04:55:09.826Z,11.50
2019-03-17T04:57:36.493Z,10.57
2019-03-17T05:00:09.601Z,12.07
2019-03-17T05:02:36.323Z,11.53
2019-03-17T05:05:06.027Z,10.90
2019-03-17T05:07:33.793Z,11.27
2019-03-17T05:10:00.518Z,11.40
2019-03-17T05:12:27.083Z,11.90
2019-03-17T05:14:53.649Z,11.47
2019-03-17T05:17:20.364Z,12.00
2019-03-17T05:19:46.979Z,12.40
2019-03-17T05:22:13.736Z,11.97
2019-03-17T05:24:40.301Z,11.77
2019-03-17T05:27:06.873Z,11.40
2019-03-17T05:29:33.707Z,11.53
2019-03-17T05:32:00.402Z,12.43
2019-03-17T05:34:27.067Z,12.17
2019-03-17T05:37:05.501Z,11.50
2019-03-17T05:39:22.318Z,12.43
2019-03-17T05:41:48.905Z,12.10
2019-03-17T05:44:15.479Z,12.40
2019-03-17T05:46:42.094Z,11.77
2019-03-17T05:49:08.760Z,12.03
2019-03-17T05:51:35.351Z,11.90
2019-03-17T05:54:02.051Z,12.93
2019-03-17T05:56:28.591Z,13.00
2019-03-17T05:58:55.293Z,12.67
2019-03-17T06:01:22.084Z,13.40
2019-03-17T06:03:48.703Z,13.17
2019-03-17T06:06:15.291Z,12.33
2019-03-17T06:08:41.944Z,11.73
2019-03-17T06:11:08.583Z,13.10
2019-03-17T06:13:35.396Z,14.10
2019-03-17T06:16:01.993Z,12.17
2019-03-17T06:18:28.571Z,12.73
2019-03-17T06:20:55.631Z,13.40
2019-03-17T06:23:22.281Z,13.20
2019-03-17T06:25:48.954Z,12.20
2019-03-17T06:28:15.520Z,13.07
2019-03-17T06:30:42.178Z,13.43
2019-03-17T06:33:08.809Z,13.50
2019-03-17T06:35:35.479Z,13.57
2019-03-17T06:38:05.009Z,12.93
2019-03-17T06:40:31.647Z,13.37
2019-03-17T06:42:58.354Z,12.97
2019-03-17T06:45:24.951Z,12.80
2019-03-17T06:47:51.586Z,14.00
2019-03-17T06:50:18.150Z,13.53
2019-03-17T06:52:44.896Z,13.03
2019-03-17T06:55:16.209Z,13.30
2019-03-17T06:57:42.792Z,13.23
2019-03-17T07:00:12.393Z,13.67
2019-03-17T07:02:39.104Z,12.60
2019-03-17T07:05:08.272Z,13.40
2019-03-17T07:07:43.884Z,13.97
2019-03-17T07:10:07.794Z,13.13
2019-03-17T07:12:34.494Z,13.47
2019-03-17T07:15:01.483Z,13.77
2019-03-17T07:17:28.036Z,13.30
2019-03-17T07:19:54.702Z,14.27
2019-03-17T07:22:21.444Z,13.53
2019-03-17T07:24:48.147Z,14.00
2019-03-17T07:27:14.950Z,14.23
2019-03-17T07:29:41.586Z,13.47
2019-03-17T07:32:08.301Z,12.60
2019-03-17T07:34:35.020Z,13.17
2019-03-17T07:37:01.568Z,12.43
2019-03-17T07:39:28.159Z,13.93
2019-03-17T07:41:54.747Z,12.70
2019-03-17T07:44:21.892Z,12.67
2019-03-17T07:46:48.531Z,11.77
2019-03-17T07:49:15.412Z,12.17
2019-03-17T07:51:42.007Z,11.80
2019-03-17T07:54:08.577Z,12.23
2019-03-17T07:56:35.210Z,10.50
2019-03-17T07:59:01.889Z,10.50
2019-03-17T08:01:28.512Z,10.70
2019-03-17T08:03:55.147Z,10.33
2019-03-17T08:06:21.884Z,10.30
2019-03-17T08:08:49.678Z,9.93
2019-03-17T08:11:16.387Z,10.07
2019-03-17T08:13:43.095Z,9.20
2019-03-17T08:16:09.659Z,9.50
2019-03-17T08:18:36.342Z,9.17
2019-03-17T08:21:04.113Z,9.40
2019-03-17T08:23:30.684Z,8.70
2019-03-17T08:25:57.247Z,8.13
2019-03-17T08:28:23.865Z,8.40
2019-03-17T08:30:53.516Z,8.43
2019-03-17T08:33:21.089Z,7.33
2019-03-17T08:35:47.891Z,8.20
2019-03-17T08:38:21.747Z,8.00
2019-03-17T08:40:43.177Z,6.87
2019-03-17T08:43:09.864Z,7.40
2019-03-17T08:45:36.438Z,7.27
2019-03-17T08:48:08.113Z,7.23
2019-03-17T08:50:34.683Z,7.30
2019-03-17T08:53:01.471Z,7.37
2019-03-17T08:55:28.033Z,6.87
2019-03-17T08:57:54.606Z,7.40
2019-03-17T09:00:21.330Z,6.63
2019-03-17T09:02:48.050Z,6.33
2019-03-17T09:05:14.947Z,7.47
2019-03-17T09:07:41.558Z,6.77
2019-03-17T09:10:13.041Z,6.77
2019-03-17T09:12:39.862Z,6.00
2019-03-17T09:15:06.990Z,6.43
2019-03-17T09:17:33.954Z,7.17
2019-03-17T09:20:00.681Z,6.77
2019-03-17T09:22:27.255Z,6.63
2019-03-17T09:24:53.954Z,5.90
2019-03-17T09:27:20.712Z,7.30
2019-03-17T09:29:47.327Z,5.97
2019-03-17T09:32:14.022Z,6.57
2019-03-17T09:34:40.575Z,7.30
2019-03-17T09:37:07.161Z,7.53
2019-03-17T09:39:33.911Z,6.73
2019-03-17T09:42:00.653Z,7.70
2019-03-17T09:44:27.221Z,6.60
2019-03-17T09:46:54.013Z,7.13
2019-03-17T09:49:20.750Z,6.93
2019-03-17T09:51:47.496Z,6.17
2019-03-17T09:54:14.367Z,6.27
2019-03-17T09:56:41.246Z,5.77
2019-03-17T09:59:08.032Z,6.20
2019-03-17T10:01:34.705Z,5.27
2019-03-17T10:04:02.602Z,5.40
2019-03-17T10:06:29.287Z,5.67
2019-03-17T10:09:00.123Z,5.20
2019-03-17T10:11:24.643Z,4.90
2019-03-17T10:13:51.363Z,5.30
2019-03-17T10:16:18.019Z,5.10
2019-03-17T10:18:44.576Z,4.97
2019-03-17T10:21:14.184Z,17.07
2019-03-17T10:23:40.937Z,4.83
2019-03-17T10:26:10.859Z,4.40
2019-03-17T10:28:37.469Z,5.17
2019-03-17T10:31:04.380Z,5.03
2019-03-17T10:33:32.285Z,4.83
2019-03-17T10:35:59.197Z,4.70
2019-03-17T10:38:25.761Z,4.67
2019-03-17T10:40:52.464Z,5.30
2019-03-17T10:43:19.162Z,5.53
2019-03-17T10:45:45.975Z,5.27
2019-03-17T10:48:12.534Z,5.60
2019-03-17T10:50:49.387Z,4.93
2019-03-17T10:53:08.579Z,4.90
2019-03-17T10:55:38.187Z,5.57
2019-03-17T10:58:05.040Z,5.83
2019-03-17T11:00:32.030Z,5.27
2019-03-17T11:02:58.696Z,3.80
2019-03-17T11:05:25.291Z,4.27
2019-03-17T11:07:51.847Z,4.40
2019-03-17T11:10:18.535Z,4.00
2019-03-17T11:12:45.305Z,3.73
2019-03-17T11:15:15.042Z,4.43
2019-03-17T11:17:41.671Z,4.30
2019-03-17T11:20:11.677Z,3.80
2019-03-17T11:22:38.655Z,4.70
2019-03-17T11:25:10.230Z,3.77
2019-03-17T11:27:37.104Z,4.27
2019-03-17T11:30:09.292Z,3.73
2019-03-17T11:32:35.892Z,3.73
2019-03-17T11:35:04.812Z,4.63
2019-03-17T11:37:32.809Z,3.73
2019-03-17T11:39:59.419Z,3.70
2019-03-17T11:42:25.989Z,3.10
2019-03-17T11:44:52.818Z,3.03
2019-03-17T11:47:19.998Z,3.60
2019-03-17T11:49:46.738Z,2.97
2019-03-17T11:52:14.351Z,3.33
2019-03-17T11:55:37.418Z,3.80
2019-03-17T11:58:04.202Z,3.60
2019-03-17T12:00:31.350Z,3.17
2019-03-17T12:02:57.986Z,3.20
2019-03-17T12:05:24.650Z,3.70
2019-03-17T12:07:51.348Z,3.00
2019-03-17T12:10:22.651Z,3.60
2019-03-17T12:12:49.322Z,3.80
2019-03-17T12:15:20.570Z,3.00
2019-03-17T12:17:47.507Z,2.43
2019-03-17T12:20:14.963Z,3.07
2019-03-17T12:22:41.839Z,2.53
2019-03-17T12:25:12.132Z,3.13
2019-03-17T12:27:39.072Z,3.60
2019-03-17T12:30:11.383Z,3.00
2019-03-17T12:32:38.041Z,3.20
2019-03-17T12:35:04.952Z,2.70
2019-03-17T12:37:31.584Z,2.60
2019-03-17T12:40:02.743Z,2.83
2019-03-17T12:42:26.776Z,2.07
2019-03-17T12:45:49.955Z,2.50
2019-03-17T12:48:16.635Z,2.50
2019-03-17T12:50:43.387Z,2.57
2019-03-17T12:53:10.177Z,2.50
2019-03-17T12:55:36.829Z,2.63
2019-03-17T12:58:03.460Z,2.30
2019-03-17T13:00:30.057Z,3.10
2019-03-17T13:02:57.068Z,2.83
2019-03-17T13:05:23.645Z,3.07
2019-03-17T13:07:50.342Z,2.37
2019-03-17T13:10:20.899Z,2.50
2019-03-17T13:12:47.606Z,2.50
2019-03-17T13:15:14.596Z,2.63
2019-03-17T13:17:41.388Z,2.77
2019-03-17T13:20:12.558Z,2.77
2019-03-17T13:22:40.345Z,2.57
2019-03-17T13:25:10.177Z,2.50
2019-03-17T13:27:38.662Z,2.50
2019-03-17T13:30:10.284Z,2.40
2019-03-17T13:32:36.922Z,2.23
2019-03-17T13:35:06.440Z,2.60
2019-03-17T13:37:33.009Z,2.60
2019-03-17T13:39:59.694Z,2.80
2019-03-17T13:42:26.315Z,2.70
2019-03-17T13:44:53.055Z,2.50
2019-03-17T13:47:19.710Z,2.40
2019-03-17T13:49:46.365Z,2.53
2019-03-17T13:52:13.426Z,2.57
2019-03-17T13:54:40.073Z,2.80
2019-03-17T13:57:06.745Z,2.97
2019-03-17T13:59:33.379Z,3.30
2019-03-17T14:02:00.103Z,3.40
2019-03-17T14:04:26.732Z,3.03
2019-03-17T14:06:53.724Z,2.80
2019-03-17T14:09:20.503Z,3.20
2019-03-17T14:11:47.112Z,4.57
2019-03-17T14:14:13.705Z,3.40
2019-03-17T14:16:40.374Z,2.80
2019-03-17T14:19:07.326Z,2.70
2019-03-17T14:21:33.973Z,3.03
2019-03-17T14:24:00.623Z,3.10
2019-03-17T14:26:27.332Z,4.80
2019-03-17T14:28:53.988Z,2.53
2019-03-17T14:32:18.292Z,2.80
2019-03-17T14:34:44.881Z,3.13
2019-03-17T14:37:11.608Z,2.67
2019-03-17T14:39:38.153Z,2.80
2019-03-17T14:42:04.850Z,3.03
2019-03-17T14:44:31.587Z,2.97
2019-03-17T14:46:58.150Z,8.10
2019-03-17T14:49:24.815Z,3.00
2019-03-17T14:51:51.569Z,4.47
2019-03-17T14:54:18.175Z,3.67
2019-03-17T14:56:46.371Z,3.00
2019-03-17T14:59:13.075Z,2.60
2019-03-17T15:01:39.723Z,2.57
2019-03-17T15:04:06.444Z,2.63
2019-03-17T15:06:33.134Z,2.87
2019-03-17T15:08:59.842Z,2.93
2019-03-17T15:11:27.557Z,4.03
2019-03-17T15:13:54.577Z,4.70
2019-03-17T15:16:22.822Z,4.03
2019-03-17T15:18:49.480Z,2.70
2019-03-17T15:21:16.036Z,3.17
2019-03-17T15:23:44.203Z,3.00
2019-03-17T15:26:11.905Z,3.07
2019-03-17T15:28:38.482Z,2.50
2019-03-17T15:31:11.346Z,4.10
2019-03-17T15:33:34.143Z,3.57
2019-03-17T15:36:01.927Z,6.07
2019-03-17T15:38:28.517Z,3.90
2019-03-17T15:40:55.435Z,3.27
2019-03-17T15:43:23.762Z,3.90
2019-03-17T15:45:53.912Z,2.60
2019-03-17T15:48:22.407Z,2.47
2019-03-17T15:50:51.369Z,2.70
2019-03-17T15:53:23.792Z,3.00
2019-03-17T15:55:52.760Z,3.70
2019-03-17T15:58:24.009Z,3.87
2019-03-17T16:00:54.172Z,5.70
2019-03-17T16:03:32.000Z,4.57
2019-03-17T16:06:06.803Z,3.43
2019-03-17T16:08:38.986Z,2.80
2019-03-17T16:11:08.117Z,3.17
2019-03-17T16:13:37.046Z,2.97
2019-03-17T16:16:04.633Z,3.60
2019-03-17T16:18:31.904Z,3.63
2019-03-17T16:20:58.798Z,4.30
2019-03-17T16:23:26.658Z,3.60
2019-03-17T16:25:54.589Z,4.20
2019-03-17T16:28:23.381Z,3.83
2019-03-17T16:30:54.344Z,3.33
2019-03-17T16:33:25.186Z,2.80
2019-03-17T16:35:54.970Z,3.00
2019-03-17T16:38:28.510Z,3.20
2019-03-17T16:40:56.042Z,2.70
2019-03-17T16:43:22.803Z,3.20
2019-03-17T16:45:49.624Z,4.00
2019-03-17T16:48:16.197Z,3.60
2019-03-17T16:50:42.800Z,3.83
2019-03-17T16:53:09.437Z,4.20
2019-03-17T16:55:36.128Z,4.23
2019-03-17T16:58:03.300Z,5.10
2019-03-17T17:00:30.590Z,4.87
2019-03-17T17:02:57.283Z,5.00
2019-03-17T17:05:25.005Z,5.60
2019-03-17T17:07:51.727Z,6.97
2019-03-17T17:11:14.518Z,7.20
2019-03-17T17:13:41.119Z,8.60
2019-03-17T17:16:07.762Z,10.03
2019-03-17T17:18:34.586Z,9.30
2019-03-17T17:21:01.285Z,10.37
2019-03-17T17:23:30.972Z,8.03
2019-03-17T17:25:58.070Z,6.33
2019-03-17T17:28:24.974Z,5.43
2019-03-17T17:30:51.557Z,5.80
2019-03-17T17:33:18.171Z,5.60
2019-03-17T17:36:41.729Z,5.27
2019-03-17T17:39:08.668Z,4.70
2019-03-17T17:42:31.529Z,5.33
2019-03-17T17:44:58.201Z,5.17
2019-03-17T17:47:24.965Z,5.20
2019-03-17T17:49:51.645Z,5.70
2019-03-17T17:52:18.357Z,6.30
2019-03-17T17:54:45.038Z,6.33
2019-03-17T17:57:11.761Z,7.80
2019-03-17T17:59:41.349Z,8.77
2019-03-17T18:02:08.175Z,10.13
2019-03-17T18:04:36.867Z,10.67
2019-03-17T18:07:07.128Z,12.40
2019-03-17T18:09:33.907Z,13.67
2019-03-17T18:12:00.795Z,14.07
2019-03-17T18:14:28.655Z,14.50
2019-03-17T18:16:55.507Z,16.00
2019-03-17T18:19:23.173Z,18.33
2019-03-17T18:21:49.944Z,17.13
2019-03-17T18:24:18.000Z,17.90
2019-03-17T18:26:45.434Z,17.73
2019-03-17T18:29:12.374Z,17.90
2019-03-17T18:31:39.726Z,17.10
2019-03-17T18:34:06.435Z,16.40
2019-03-17T18:36:33.265Z,16.70
2019-03-17T18:39:01.377Z,17.57
2019-03-17T18:41:32.591Z,20.40
2019-03-17T18:43:59.213Z,20.23
2019-03-17T18:46:25.850Z,22.20
2019-03-17T18:48:53.066Z,23.23
2019-03-17T18:51:19.824Z,26.20
2019-03-17T18:53:47.103Z,27.20
2019-03-17T18:56:13.885Z,27.73
2019-03-17T18:58:42.181Z,27.27
2019-03-17T19:01:08.876Z,29.90
2019-03-17T19:03:36.692Z,31.37
2019-03-17T19:06:04.187Z,30.47
2019-03-17T19:08:30.831Z,30.80
2019-03-17T19:10:57.677Z,31.37
2019-03-17T19:13:24.617Z,22.10
2019-03-17T19:15:52.437Z,20.53
2019-03-17T19:18:19.518Z,21.13
2019-03-17T19:20:47.231Z,24.03
2019-03-17T19:23:13.817Z,22.73
2019-03-17T19:25:40.905Z,25.53
2019-03-17T19:28:07.698Z,27.67
2019-03-17T19:30:34.843Z,28.53
2019-03-17T19:33:01.898Z,28.13
2019-03-17T19:35:28.721Z,29.40
2019-03-17T19:37:56.471Z,31.03
2019-03-17T19:40:24.437Z,31.53
2019-03-17T19:42:58.550Z,29.67
2019-03-17T19:45:21.389Z,29.20
2019-03-17T19:47:49.931Z,30.20
2019-03-17T19:50:20.920Z,23.30
2019-03-17T19:52:47.811Z,23.97
2019-03-17T19:55:14.945Z,22.73
2019-03-17T19:57:42.195Z,24.70
2019-03-17T20:01:05.054Z,22.73
2019-03-17T20:03:32.180Z,23.27
2019-03-17T20:06:02.441Z,22.57
2019-03-17T20:08:28.229Z,23.97
2019-03-17T20:10:54.962Z,24.27
2019-03-17T20:13:22.390Z,22.17
2019-03-17T20:15:50.336Z,22.13
2019-03-17T20:18:17.022Z,22.70
2019-03-17T20:20:44.086Z,21.20
2019-03-17T20:23:10.849Z,23.37
2019-03-17T20:25:37.432Z,24.47
2019-03-17T20:28:04.269Z,25.47
2019-03-17T20:30:31.265Z,25.20
2019-03-17T20:32:58.025Z,24.37
2019-03-17T20:35:24.693Z,23.37
2019-03-17T20:37:51.268Z,23.27
2019-03-17T20:40:18.394Z,22.00
2019-03-17T20:42:45.271Z,20.23
2019-03-17T20:45:14.276Z,20.20
2019-03-17T20:47:41.850Z,19.57
2019-03-17T20:50:12.206Z,20.23
2019-03-17T20:52:39.321Z,21.43
2019-03-17T20:55:09.466Z,23.53
2019-03-17T20:57:36.249Z,24.47
2019-03-17T21:00:08.545Z,23.03
2019-03-17T21:02:35.146Z,22.60
2019-03-17T21:05:02.849Z,20.90
2019-03-17T21:07:31.493Z,23.67
2019-03-17T21:09:58.166Z,34.23
2019-03-17T21:12:24.774Z,31.20
2019-03-17T21:14:51.354Z,31.13
2019-03-17T21:17:17.931Z,30.20
2019-03-17T21:19:45.487Z,28.90
2019-03-17T21:22:12.170Z,30.53
2019-03-17T21:24:38.948Z,32.03
2019-03-17T21:27:05.643Z,34.50
2019-03-17T21:29:32.357Z,35.80
2019-03-17T21:31:59.529Z,33.03
2019-03-17T21:34:26.222Z,30.53
2019-03-17T21:36:52.827Z,31.53
2019-03-17T21:39:19.386Z,32.57
2019-03-17T21:41:45.956Z,28.53
2019-03-17T21:44:12.588Z,28.97
2019-03-17T21:46:39.171Z,28.27
2019-03-17T21:49:05.847Z,26.33
2019-03-17T21:51:32.446Z,26.73
2019-03-17T21:53:59.125Z,27.60
2019-03-17T21:56:25.855Z,24.57
2019-03-17T21:58:53.855Z,24.70
2019-03-17T22:01:20.473Z,21.00
2019-03-17T22:04:43.336Z,21.50
2019-03-17T22:07:09.894Z,33.23
2019-03-17T22:09:36.589Z,35.43
2019-03-17T22:12:03.393Z,36.73
2019-03-17T22:14:30.074Z,35.50
2019-03-17T22:16:58.663Z,32.47
2019-03-17T22:19:25.334Z,31.37
2019-03-17T22:21:51.965Z,32.53
2019-03-17T22:24:18.804Z,30.50
2019-03-17T22:26:45.381Z,32.53
2019-03-17T22:29:12.115Z,34.57
2019-03-17T22:31:38.888Z,36.13
2019-03-17T22:34:08.116Z,36.53
2019-03-17T22:36:34.282Z,21.40
2019-03-17T22:39:00.851Z,18.40
2019-03-17T22:41:27.490Z,15.37
2019-03-17T22:43:54.363Z,15.70
2019-03-17T22:46:21.204Z,13.20
2019-03-17T22:48:47.904Z,10.37
2019-03-17T22:51:14.476Z,9.80
2019-03-17T22:53:42.241Z,11.30
2019-03-17T22:56:08.871Z,9.37
2019-03-17T22:58:35.510Z,8.40
2019-03-17T23:01:02.619Z,8.27
2019-03-17T23:03:29.598Z,7.37
2019-03-17T23:05:56.695Z,6.43
2019-03-17T23:08:23.826Z,6.53
2019-03-17T23:10:50.939Z,6.03
2019-03-17T23:13:18.223Z,5.47
2019-03-17T23:15:45.442Z,5.20
2019-03-17T23:18:12.586Z,4.73
2019-03-17T23:20:40.708Z,3.50
2019-03-17T23:23:07.956Z,3.73
2019-03-17T23:25:35.242Z,3.30
2019-03-17T23:28:02.520Z,3.00
2019-03-17T23:30:29.631Z,3.17
2019-03-17T23:32:56.805Z,2.80
2019-03-17T23:35:23.811Z,2.60
2019-03-17T23:37:50.949Z,2.37
2019-03-17T23:40:18.000Z,2.23
2019-03-17T23:42:45.199Z,1.80
2019-03-17T23:45:12.732Z,1.50
2019-03-17T23:47:39.867Z,1.80
2019-03-17T23:50:10.610Z,1.93
2019-03-17T23:52:37.613Z,1.50
2019-03-17T23:55:08.507Z,1.63
2019-03-17T23:57:36.718Z,1.60
